sensor_id;sensor_type;location;lat;lon;timestamp;P1;durP1;ratioP1;P2;durP2;ratioP2
33154;SDS011;19511;42.682;23.332;2023-05-29T00:00:10;8.27;;;4.07;;
33154;SDS011;19511;42.682;23.332;2023-05-29T00:02:38;7.38;;;4.28;;
33154;SDS011;19511;42.682;23.332;2023-05-29T00:05:12;11.07;;;4.90;;
33154;SDS011;19511;42.682;23.332;2023-05-29T00:10:08;9.65;;;4.13;;
33154;SDS011;19511;42.682;23.332;2023-05-29T00:12:35;9.95;;;4.97;;
33154;SDS011;19511;42.682;23.332;2023-05-29T00:15:01;11.48;;;4.03;;
33154;SDS011;19511;42.682;23.332;2023-05-29T00:17:29;10.75;;;4.65;;
33154;SDS011;19511;42.682;23.332;2023-05-29T00:19:57;6.40;;;3.92;;
33154;SDS011;19511;42.682;23.332;2023-05-29T00:22:27;12.80;;;4.85;;
33154;SDS011;19511;42.682;23.332;2023-05-29T00:24:53;12.15;;;5.07;;
33154;SDS011;19511;42.682;23.332;2023-05-29T00:27:18;8.63;;;4.88;;
33154;SDS011;19511;42.682;23.332;2023-05-29T00:29:44;10.50;;;4.82;;
33154;SDS011;19511;42.682;23.332;2023-05-29T00:32:14;6.00;;;3.63;;
33154;SDS011;19511;42.682;23.332;2023-05-29T00:34:43;9.20;;;4.15;;
33154;SDS011;19511;42.682;23.332;2023-05-29T00:37:08;14.00;;;4.60;;
33154;SDS011;19511;42.682;23.332;2023-05-29T00:39:34;7.68;;;4.35;;
33154;SDS011;19511;42.682;23.332;2023-05-29T00:42:00;9.45;;;4.78;;
33154;SDS011;19511;42.682;23.332;2023-05-29T00:44:25;13.77;;;4.93;;
33154;SDS011;19511;42.682;23.332;2023-05-29T00:46:51;8.27;;;4.18;;
33154;SDS011;19511;42.682;23.332;2023-05-29T00:49:26;9.13;;;4.20;;
33154;SDS011;19511;42.682;23.332;2023-05-29T00:51:52;8.90;;;4.45;;
33154;SDS011;19511;42.682;23.332;2023-05-29T00:54:21;10.38;;;4.80;;
33154;SDS011;19511;42.682;23.332;2023-05-29T00:56:51;11.77;;;4.90;;
33154;SDS011;19511;42.682;23.332;2023-05-29T00:59:17;8.65;;;4.05;;
33154;SDS011;19511;42.682;23.332;2023-05-29T01:01:46;7.55;;;4.40;;
33154;SDS011;19511;42.682;23.332;2023-05-29T01:04:13;12.90;;;5.25;;
33154;SDS011;19511;42.682;23.332;2023-05-29T01:06:40;7.70;;;4.20;;
33154;SDS011;19511;42.682;23.332;2023-05-29T01:09:06;11.65;;;5.22;;
33154;SDS011;19511;42.682;23.332;2023-05-29T01:14:51;9.93;;;4.85;;
33154;SDS011;19511;42.682;23.332;2023-05-29T01:29:00;8.88;;;4.53;;
33154;SDS011;19511;42.682;23.332;2023-05-29T01:31:28;10.25;;;4.65;;
33154;SDS011;19511;42.682;23.332;2023-05-29T01:33:56;12.13;;;4.82;;
33154;SDS011;19511;42.682;23.332;2023-05-29T01:36:23;11.52;;;5.20;;
33154;SDS011;19511;42.682;23.332;2023-05-29T01:38:50;7.63;;;4.43;;
33154;SDS011;19511;42.682;23.332;2023-05-29T01:41:17;9.43;;;4.70;;
33154;SDS011;19511;42.682;23.332;2023-05-29T01:43:48;11.10;;;5.63;;
33154;SDS011;19511;42.682;23.332;2023-05-29T01:46:15;10.75;;;4.53;;
33154;SDS011;19511;42.682;23.332;2023-05-29T01:48:41;12.43;;;4.90;;
33154;SDS011;19511;42.682;23.332;2023-05-29T01:51:11;9.40;;;4.88;;
33154;SDS011;19511;42.682;23.332;2023-05-29T01:53:39;16.90;;;5.53;;
33154;SDS011;19511;42.682;23.332;2023-05-29T01:56:05;11.07;;;4.90;;
33154;SDS011;19511;42.682;23.332;2023-05-29T01:58:33;13.00;;;6.47;;
33154;SDS011;19511;42.682;23.332;2023-05-29T02:00:59;8.68;;;4.45;;
33154;SDS011;19511;42.682;23.332;2023-05-29T02:03:26;10.50;;;4.97;;
33154;SDS011;19511;42.682;23.332;2023-05-29T02:05:54;11.95;;;5.13;;
33154;SDS011;19511;42.682;23.332;2023-05-29T02:08:20;13.07;;;5.05;;
33154;SDS011;19511;42.682;23.332;2023-05-29T02:10:46;8.90;;;4.88;;
33154;SDS011;19511;42.682;23.332;2023-05-29T02:13:12;7.10;;;4.60;;
33154;SDS011;19511;42.682;23.332;2023-05-29T02:15:39;11.70;;;5.07;;
33154;SDS011;19511;42.682;23.332;2023-05-29T02:18:10;12.05;;;6.00;;
33154;SDS011;19511;42.682;23.332;2023-05-29T02:20:39;11.85;;;5.63;;
33154;SDS011;19511;42.682;23.332;2023-05-29T02:23:05;11.18;;;5.85;;
33154;SDS011;19511;42.682;23.332;2023-05-29T02:25:30;9.00;;;5.43;;
33154;SDS011;19511;42.682;23.332;2023-05-29T02:27:55;12.80;;;5.25;;
33154;SDS011;19511;42.682;23.332;2023-05-29T02:30:21;12.45;;;4.97;;
33154;SDS011;19511;42.682;23.332;2023-05-29T02:32:46;8.90;;;4.72;;
33154;SDS011;19511;42.682;23.332;2023-05-29T02:35:12;13.10;;;5.25;;
33154;SDS011;19511;42.682;23.332;2023-05-29T02:37:42;14.57;;;5.47;;
33154;SDS011;19511;42.682;23.332;2023-05-29T02:40:07;9.60;;;5.30;;
33154;SDS011;19511;42.682;23.332;2023-05-29T02:42:33;14.90;;;5.20;;
33154;SDS011;19511;42.682;23.332;2023-05-29T02:44:59;9.80;;;4.75;;
33154;SDS011;19511;42.682;23.332;2023-05-29T02:47:25;12.02;;;4.93;;
33154;SDS011;19511;42.682;23.332;2023-05-29T02:49:50;10.55;;;5.28;;
33154;SDS011;19511;42.682;23.332;2023-05-29T02:52:16;8.85;;;4.57;;
33154;SDS011;19511;42.682;23.332;2023-05-29T02:54:41;13.00;;;5.60;;
33154;SDS011;19511;42.682;23.332;2023-05-29T02:57:07;12.55;;;5.78;;
33154;SDS011;19511;42.682;23.332;2023-05-29T02:59:32;12.07;;;5.32;;
33154;SDS011;19511;42.682;23.332;2023-05-29T03:01:57;9.15;;;4.93;;
33154;SDS011;19511;42.682;23.332;2023-05-29T03:04:23;14.05;;;5.90;;
33154;SDS011;19511;42.682;23.332;2023-05-29T03:06:48;14.95;;;6.25;;
33154;SDS011;19511;42.682;23.332;2023-05-29T03:09:14;11.02;;;5.88;;
33154;SDS011;19511;42.682;23.332;2023-05-29T03:11:41;11.88;;;6.47;;
33154;SDS011;19511;42.682;23.332;2023-05-29T03:14:07;13.93;;;5.97;;
33154;SDS011;19511;42.682;23.332;2023-05-29T03:16:32;16.35;;;5.70;;
33154;SDS011;19511;42.682;23.332;2023-05-29T03:18:58;10.73;;;4.97;;
33154;SDS011;19511;42.682;23.332;2023-05-29T03:21:23;12.18;;;5.85;;
33154;SDS011;19511;42.682;23.332;2023-05-29T03:23:49;9.70;;;5.10;;
33154;SDS011;19511;42.682;23.332;2023-05-29T03:26:14;10.30;;;4.80;;
33154;SDS011;19511;42.682;23.332;2023-05-29T03:28:40;13.38;;;5.03;;
33154;SDS011;19511;42.682;23.332;2023-05-29T03:31:06;9.85;;;5.53;;
33154;SDS011;19511;42.682;23.332;2023-05-29T03:33:33;13.52;;;5.28;;
33154;SDS011;19511;42.682;23.332;2023-05-29T03:35:58;12.00;;;5.80;;
33154;SDS011;19511;42.682;23.332;2023-05-29T03:38:24;11.90;;;5.50;;
33154;SDS011;19511;42.682;23.332;2023-05-29T03:40:49;11.55;;;5.43;;
33154;SDS011;19511;42.682;23.332;2023-05-29T03:43:15;11.00;;;5.78;;
33154;SDS011;19511;42.682;23.332;2023-05-29T03:45:40;23.27;;;6.43;;
33154;SDS011;19511;42.682;23.332;2023-05-29T03:48:06;13.60;;;6.32;;
33154;SDS011;19511;42.682;23.332;2023-05-29T03:50:31;13.00;;;5.93;;
33154;SDS011;19511;42.682;23.332;2023-05-29T03:52:56;8.07;;;5.05;;
33154;SDS011;19511;42.682;23.332;2023-05-29T03:55:22;16.77;;;6.63;;
33154;SDS011;19511;42.682;23.332;2023-05-29T03:57:47;12.70;;;6.57;;
33154;SDS011;19511;42.682;23.332;2023-05-29T04:00:13;13.13;;;5.45;;
33154;SDS011;19511;42.682;23.332;2023-05-29T04:02:39;11.45;;;6.00;;
33154;SDS011;19511;42.682;23.332;2023-05-29T04:05:12;16.15;;;6.75;;
33154;SDS011;19511;42.682;23.332;2023-05-29T04:07:41;15.73;;;6.50;;
33154;SDS011;19511;42.682;23.332;2023-05-29T04:10:07;13.07;;;5.97;;
33154;SDS011;19511;42.682;23.332;2023-05-29T04:12:33;15.20;;;5.90;;
33154;SDS011;19511;42.682;23.332;2023-05-29T04:15:01;16.05;;;6.05;;
33154;SDS011;19511;42.682;23.332;2023-05-29T04:17:26;17.13;;;5.55;;
33154;SDS011;19511;42.682;23.332;2023-05-29T04:19:51;11.20;;;5.35;;
33154;SDS011;19511;42.682;23.332;2023-05-29T04:22:17;10.02;;;5.97;;
33154;SDS011;19511;42.682;23.332;2023-05-29T04:24:46;14.18;;;6.45;;
33154;SDS011;19511;42.682;23.332;2023-05-29T04:27:12;21.15;;;7.38;;
33154;SDS011;19511;42.682;23.332;2023-05-29T04:29:41;14.07;;;6.88;;
33154;SDS011;19511;42.682;23.332;2023-05-29T04:32:07;16.63;;;5.80;;
33154;SDS011;19511;42.682;23.332;2023-05-29T04:34:39;20.45;;;6.28;;
33154;SDS011;19511;42.682;23.332;2023-05-29T04:37:05;16.50;;;6.05;;
33154;SDS011;19511;42.682;23.332;2023-05-29T04:39:31;20.65;;;5.95;;
33154;SDS011;19511;42.682;23.332;2023-05-29T04:41:57;15.00;;;5.55;;
33154;SDS011;19511;42.682;23.332;2023-05-29T04:44:29;16.95;;;5.28;;
33154;SDS011;19511;42.682;23.332;2023-05-29T04:46:54;10.90;;;5.32;;
33154;SDS011;19511;42.682;23.332;2023-05-29T04:49:22;7.57;;;3.90;;
33154;SDS011;19511;42.682;23.332;2023-05-29T04:51:47;9.90;;;5.30;;
33154;SDS011;19511;42.682;23.332;2023-05-29T04:54:17;9.05;;;4.47;;
33154;SDS011;19511;42.682;23.332;2023-05-29T04:56:45;12.90;;;4.93;;
33154;SDS011;19511;42.682;23.332;2023-05-29T04:59:13;11.23;;;5.13;;
33154;SDS011;19511;42.682;23.332;2023-05-29T05:01:41;11.38;;;5.10;;
33154;SDS011;19511;42.682;23.332;2023-05-29T05:06:41;10.75;;;5.55;;
33154;SDS011;19511;42.682;23.332;2023-05-29T05:09:10;12.43;;;5.88;;
33154;SDS011;19511;42.682;23.332;2023-05-29T05:11:36;21.95;;;6.65;;
33154;SDS011;19511;42.682;23.332;2023-05-29T05:14:02;24.33;;;7.43;;
33154;SDS011;19511;42.682;23.332;2023-05-29T05:16:28;27.13;;;8.35;;
33154;SDS011;19511;42.682;23.332;2023-05-29T05:18:56;18.00;;;8.43;;
33154;SDS011;19511;42.682;23.332;2023-05-29T05:21:22;16.23;;;8.63;;
33154;SDS011;19511;42.682;23.332;2023-05-29T05:23:48;25.50;;;8.75;;
33154;SDS011;19511;42.682;23.332;2023-05-29T05:26:17;17.48;;;7.60;;
33154;SDS011;19511;42.682;23.332;2023-05-29T05:28:42;18.48;;;7.85;;
33154;SDS011;19511;42.682;23.332;2023-05-29T05:31:08;21.58;;;7.70;;
33154;SDS011;19511;42.682;23.332;2023-05-29T05:33:34;13.25;;;7.18;;
33154;SDS011;19511;42.682;23.332;2023-05-29T05:36:03;12.57;;;6.68;;
33154;SDS011;19511;42.682;23.332;2023-05-29T05:38:36;24.20;;;7.18;;
33154;SDS011;19511;42.682;23.332;2023-05-29T05:41:01;18.63;;;7.97;;
33154;SDS011;19511;42.682;23.332;2023-05-29T05:43:30;18.85;;;6.97;;
33154;SDS011;19511;42.682;23.332;2023-05-29T05:45:57;29.08;;;8.23;;
33154;SDS011;19511;42.682;23.332;2023-05-29T05:48:23;21.30;;;8.20;;
33154;SDS011;19511;42.682;23.332;2023-05-29T05:50:48;24.65;;;6.97;;
33154;SDS011;19511;42.682;23.332;2023-05-29T05:53:14;19.98;;;6.20;;
33154;SDS011;19511;42.682;23.332;2023-05-29T05:55:39;13.65;;;5.95;;
33154;SDS011;19511;42.682;23.332;2023-05-29T05:58:04;9.55;;;4.90;;
33154;SDS011;19511;42.682;23.332;2023-05-29T06:00:34;14.77;;;4.80;;
33154;SDS011;19511;42.682;23.332;2023-05-29T06:03:01;31.20;;;4.93;;
33154;SDS011;19511;42.682;23.332;2023-05-29T06:05:28;8.52;;;4.47;;
33154;SDS011;19511;42.682;23.332;2023-05-29T06:07:55;7.10;;;3.88;;
33154;SDS011;19511;42.682;23.332;2023-05-29T06:10:20;10.35;;;4.78;;
33154;SDS011;19511;42.682;23.332;2023-05-29T06:12:46;9.38;;;3.58;;
33154;SDS011;19511;42.682;23.332;2023-05-29T06:15:15;13.00;;;3.60;;
33154;SDS011;19511;42.682;23.332;2023-05-29T06:17:42;13.30;;;4.22;;
33154;SDS011;19511;42.682;23.332;2023-05-29T06:20:07;13.00;;;4.05;;
33154;SDS011;19511;42.682;23.332;2023-05-29T06:22:40;8.13;;;4.50;;
33154;SDS011;19511;42.682;23.332;2023-05-29T06:25:07;9.85;;;3.70;;
33154;SDS011;19511;42.682;23.332;2023-05-29T06:27:34;5.85;;;3.80;;
33154;SDS011;19511;42.682;23.332;2023-05-29T06:30:00;6.85;;;3.08;;
33154;SDS011;19511;42.682;23.332;2023-05-29T06:32:31;11.50;;;4.00;;
33154;SDS011;19511;42.682;23.332;2023-05-29T06:35:00;6.47;;;2.97;;
33154;SDS011;19511;42.682;23.332;2023-05-29T06:37:32;9.32;;;2.60;;
33154;SDS011;19511;42.682;23.332;2023-05-29T06:40:02;5.00;;;2.50;;
33154;SDS011;19511;42.682;23.332;2023-05-29T06:42:30;10.10;;;2.28;;
33154;SDS011;19511;42.682;23.332;2023-05-29T06:44:57;5.65;;;3.22;;
33154;SDS011;19511;42.682;23.332;2023-05-29T06:47:22;9.75;;;2.78;;
33154;SDS011;19511;42.682;23.332;2023-05-29T06:49:49;4.38;;;2.03;;
33154;SDS011;19511;42.682;23.332;2023-05-29T06:52:15;7.50;;;2.70;;
33154;SDS011;19511;42.682;23.332;2023-05-29T06:54:44;5.28;;;2.45;;
33154;SDS011;19511;42.682;23.332;2023-05-29T06:57:10;4.95;;;2.65;;
33154;SDS011;19511;42.682;23.332;2023-05-29T06:59:35;8.05;;;1.83;;
33154;SDS011;19511;42.682;23.332;2023-05-29T07:02:07;3.63;;;2.08;;
33154;SDS011;19511;42.682;23.332;2023-05-29T07:04:35;8.82;;;1.95;;
33154;SDS011;19511;42.682;23.332;2023-05-29T07:07:01;6.35;;;2.17;;
33154;SDS011;19511;42.682;23.332;2023-05-29T07:09:27;5.78;;;2.40;;
33154;SDS011;19511;42.682;23.332;2023-05-29T07:11:53;6.72;;;2.33;;
33154;SDS011;19511;42.682;23.332;2023-05-29T07:14:18;4.20;;;2.05;;
33154;SDS011;19511;42.682;23.332;2023-05-29T07:16:44;7.72;;;2.25;;
33154;SDS011;19511;42.682;23.332;2023-05-29T07:19:13;4.60;;;2.13;;
33154;SDS011;19511;42.682;23.332;2023-05-29T07:21:44;3.58;;;1.67;;
33154;SDS011;19511;42.682;23.332;2023-05-29T07:24:11;4.03;;;1.88;;
33154;SDS011;19511;42.682;23.332;2023-05-29T07:26:37;3.40;;;2.13;;
33154;SDS011;19511;42.682;23.332;2023-05-29T07:29:02;4.35;;;2.00;;
33154;SDS011;19511;42.682;23.332;2023-05-29T07:31:33;3.10;;;2.25;;
33154;SDS011;19511;42.682;23.332;2023-05-29T07:33:59;6.07;;;2.08;;
33154;SDS011;19511;42.682;23.332;2023-05-29T07:36:29;4.57;;;2.35;;
33154;SDS011;19511;42.682;23.332;2023-05-29T07:39:05;3.97;;;2.08;;
33154;SDS011;19511;42.682;23.332;2023-05-29T07:41:32;6.95;;;2.80;;
33154;SDS011;19511;42.682;23.332;2023-05-29T07:44:08;4.03;;;2.15;;
33154;SDS011;19511;42.682;23.332;2023-05-29T07:46:36;7.53;;;2.75;;
33154;SDS011;19511;42.682;23.332;2023-05-29T07:49:07;5.60;;;2.38;;
33154;SDS011;19511;42.682;23.332;2023-05-29T07:51:35;4.40;;;2.25;;
33154;SDS011;19511;42.682;23.332;2023-05-29T07:54:00;3.50;;;1.95;;
33154;SDS011;19511;42.682;23.332;2023-05-29T07:56:26;3.00;;;1.73;;
33154;SDS011;19511;42.682;23.332;2023-05-29T07:58:54;3.70;;;1.85;;
33154;SDS011;19511;42.682;23.332;2023-05-29T08:01:20;3.08;;;1.67;;
33154;SDS011;19511;42.682;23.332;2023-05-29T08:03:52;4.25;;;1.90;;
33154;SDS011;19511;42.682;23.332;2023-05-29T08:06:24;4.13;;;2.03;;
33154;SDS011;19511;42.682;23.332;2023-05-29T08:08:50;2.92;;;1.98;;
33154;SDS011;19511;42.682;23.332;2023-05-29T08:11:17;3.22;;;1.30;;
33154;SDS011;19511;42.682;23.332;2023-05-29T08:13:46;1.92;;;1.58;;
33154;SDS011;19511;42.682;23.332;2023-05-29T08:16:14;2.97;;;1.92;;
33154;SDS011;19511;42.682;23.332;2023-05-29T08:18:42;11.05;;;1.67;;
33154;SDS011;19511;42.682;23.332;2023-05-29T08:21:07;3.30;;;1.48;;
33154;SDS011;19511;42.682;23.332;2023-05-29T08:23:34;8.05;;;2.00;;
33154;SDS011;19511;42.682;23.332;2023-05-29T08:26:00;5.00;;;1.52;;
33154;SDS011;19511;42.682;23.332;2023-05-29T08:28:28;4.00;;;2.10;;
33154;SDS011;19511;42.682;23.332;2023-05-29T08:30:54;2.58;;;1.77;;
33154;SDS011;19511;42.682;23.332;2023-05-29T08:33:19;3.60;;;1.88;;
33154;SDS011;19511;42.682;23.332;2023-05-29T08:35:45;5.07;;;1.65;;
33154;SDS011;19511;42.682;23.332;2023-05-29T08:38:10;8.20;;;2.22;;
33154;SDS011;19511;42.682;23.332;2023-05-29T08:40:36;5.00;;;2.22;;
33154;SDS011;19511;42.682;23.332;2023-05-29T08:45:45;3.63;;;2.13;;
33154;SDS011;19511;42.682;23.332;2023-05-29T08:48:17;5.55;;;2.08;;
33154;SDS011;19511;42.682;23.332;2023-05-29T08:50:50;4.23;;;1.93;;
33154;SDS011;19511;42.682;23.332;2023-05-29T08:53:19;6.70;;;1.77;;
33154;SDS011;19511;42.682;23.332;2023-05-29T08:55:48;3.85;;;2.13;;
33154;SDS011;19511;42.682;23.332;2023-05-29T08:58:18;8.25;;;1.58;;
33154;SDS011;19511;42.682;23.332;2023-05-29T09:00:46;5.18;;;1.98;;
33154;SDS011;19511;42.682;23.332;2023-05-29T09:03:12;2.85;;;1.42;;
33154;SDS011;19511;42.682;23.332;2023-05-29T09:05:44;6.50;;;3.72;;
33154;SDS011;19511;42.682;23.332;2023-05-29T09:08:16;3.58;;;1.88;;
33154;SDS011;19511;42.682;23.332;2023-05-29T09:10:42;2.60;;;1.80;;
33154;SDS011;19511;42.682;23.332;2023-05-29T09:13:09;4.30;;;1.88;;
33154;SDS011;19511;42.682;23.332;2023-05-29T09:15:40;4.07;;;2.08;;
33154;SDS011;19511;42.682;23.332;2023-05-29T09:18:08;3.28;;;1.98;;
33154;SDS011;19511;42.682;23.332;2023-05-29T09:20:37;4.43;;;2.40;;
33154;SDS011;19511;42.682;23.332;2023-05-29T09:23:08;4.70;;;1.77;;
33154;SDS011;19511;42.682;23.332;2023-05-29T09:25:43;7.35;;;2.08;;
33154;SDS011;19511;42.682;23.332;2023-05-29T09:28:08;2.88;;;1.90;;
33154;SDS011;19511;42.682;23.332;2023-05-29T09:33:03;4.72;;;1.83;;
33154;SDS011;19511;42.682;23.332;2023-05-29T09:35:38;3.25;;;2.15;;
33154;SDS011;19511;42.682;23.332;2023-05-29T09:38:04;6.47;;;1.98;;
33154;SDS011;19511;42.682;23.332;2023-05-29T09:40:32;3.72;;;1.88;;
33154;SDS011;19511;42.682;23.332;2023-05-29T09:43:06;3.53;;;2.30;;
33154;SDS011;19511;42.682;23.332;2023-05-29T09:45:38;3.30;;;1.75;;
33154;SDS011;19511;42.682;23.332;2023-05-29T09:48:18;3.78;;;2.13;;
33154;SDS011;19511;42.682;23.332;2023-05-29T09:50:50;2.25;;;1.40;;
33154;SDS011;19511;42.682;23.332;2023-05-29T09:55:49;3.55;;;2.20;;
33154;SDS011;19511;42.682;23.332;2023-05-29T09:58:18;5.28;;;2.15;;
33154;SDS011;19511;42.682;23.332;2023-05-29T10:00:44;4.18;;;1.90;;
33154;SDS011;19511;42.682;23.332;2023-05-29T10:03:16;7.82;;;2.08;;
33154;SDS011;19511;42.682;23.332;2023-05-29T10:05:44;3.40;;;2.08;;
33154;SDS011;19511;42.682;23.332;2023-05-29T10:08:13;4.18;;;1.92;;
33154;SDS011;19511;42.682;23.332;2023-05-29T10:10:43;4.20;;;2.15;;
33154;SDS011;19511;42.682;23.332;2023-05-29T10:13:18;3.92;;;2.33;;
33154;SDS011;19511;42.682;23.332;2023-05-29T10:15:51;13.40;;;2.35;;
33154;SDS011;19511;42.682;23.332;2023-05-29T10:20:47;4.43;;;1.95;;
33154;SDS011;19511;42.682;23.332;2023-05-29T10:23:16;3.63;;;2.03;;
33154;SDS011;19511;42.682;23.332;2023-05-29T10:25:51;8.88;;;2.33;;
33154;SDS011;19511;42.682;23.332;2023-05-29T10:28:22;4.35;;;2.13;;
33154;SDS011;19511;42.682;23.332;2023-05-29T10:36:13;5.05;;;1.85;;
33154;SDS011;19511;42.682;23.332;2023-05-29T10:38:49;4.05;;;2.17;;
33154;SDS011;19511;42.682;23.332;2023-05-29T10:43:53;2.40;;;1.23;;
33154;SDS011;19511;42.682;23.332;2023-05-29T10:49:20;4.30;;;2.28;;
33154;SDS011;19511;42.682;23.332;2023-05-29T10:51:50;2.97;;;1.73;;
33154;SDS011;19511;42.682;23.332;2023-05-29T10:54:16;2.53;;;1.85;;
33154;SDS011;19511;42.682;23.332;2023-05-29T10:56:55;3.08;;;1.92;;
33154;SDS011;19511;42.682;23.332;2023-05-29T10:59:25;3.10;;;2.05;;
33154;SDS011;19511;42.682;23.332;2023-05-29T11:01:53;9.50;;;2.40;;
33154;SDS011;19511;42.682;23.332;2023-05-29T11:06:50;3.40;;;2.30;;
33154;SDS011;19511;42.682;23.332;2023-05-29T11:09:26;4.03;;;2.08;;
33154;SDS011;19511;42.682;23.332;2023-05-29T11:12:11;4.70;;;2.03;;
33154;SDS011;19511;42.682;23.332;2023-05-29T11:17:29;5.22;;;2.17;;
33154;SDS011;19511;42.682;23.332;2023-05-29T11:19:56;14.18;;;2.17;;
33154;SDS011;19511;42.682;23.332;2023-05-29T11:22:27;15.80;;;2.40;;
33154;SDS011;19511;42.682;23.332;2023-05-29T11:25:21;3.85;;;2.30;;
33154;SDS011;19511;42.682;23.332;2023-05-29T11:27:46;5.38;;;2.38;;
33154;SDS011;19511;42.682;23.332;2023-05-29T11:30:12;3.28;;;2.00;;
33154;SDS011;19511;42.682;23.332;2023-05-29T11:32:38;5.20;;;2.55;;
33154;SDS011;19511;42.682;23.332;2023-05-29T11:35:12;3.30;;;2.00;;
33154;SDS011;19511;42.682;23.332;2023-05-29T11:37:44;5.35;;;2.30;;
33154;SDS011;19511;42.682;23.332;2023-05-29T11:40:13;3.47;;;2.20;;
33154;SDS011;19511;42.682;23.332;2023-05-29T11:42:43;3.60;;;2.08;;
33154;SDS011;19511;42.682;23.332;2023-05-29T11:45:10;4.03;;;2.03;;
33154;SDS011;19511;42.682;23.332;2023-05-29T11:50:20;6.80;;;2.55;;
33154;SDS011;19511;42.682;23.332;2023-05-29T11:52:47;5.85;;;2.40;;
33154;SDS011;19511;42.682;23.332;2023-05-29T11:55:17;4.18;;;2.00;;
33154;SDS011;19511;42.682;23.332;2023-05-29T11:57:50;4.18;;;2.35;;
33154;SDS011;19511;42.682;23.332;2023-05-29T12:00:17;3.08;;;1.65;;
33154;SDS011;19511;42.682;23.332;2023-05-29T12:02:45;5.63;;;2.30;;
33154;SDS011;19511;42.682;23.332;2023-05-29T12:05:15;5.82;;;2.20;;
33154;SDS011;19511;42.682;23.332;2023-05-29T12:07:50;3.60;;;2.05;;
33154;SDS011;19511;42.682;23.332;2023-05-29T12:10:17;3.45;;;2.17;;
33154;SDS011;19511;42.682;23.332;2023-05-29T12:12:53;12.35;;;2.20;;
33154;SDS011;19511;42.682;23.332;2023-05-29T12:15:20;7.57;;;2.42;;
33154;SDS011;19511;42.682;23.332;2023-05-29T12:17:47;11.20;;;3.25;;
33154;SDS011;19511;42.682;23.332;2023-05-29T12:20:15;4.95;;;2.88;;
33154;SDS011;19511;42.682;23.332;2023-05-29T12:22:42;7.70;;;2.95;;
33154;SDS011;19511;42.682;23.332;2023-05-29T12:25:09;4.95;;;3.15;;
33154;SDS011;19511;42.682;23.332;2023-05-29T12:27:39;7.43;;;3.38;;
33154;SDS011;19511;42.682;23.332;2023-05-29T12:30:14;6.25;;;3.22;;
33154;SDS011;19511;42.682;23.332;2023-05-29T12:32:43;8.25;;;3.60;;
33154;SDS011;19511;42.682;23.332;2023-05-29T12:37:36;22.23;;;4.57;;
33154;SDS011;19511;42.682;23.332;2023-05-29T12:40:17;9.73;;;4.65;;
33154;SDS011;19511;42.682;23.332;2023-05-29T12:42:43;10.43;;;4.50;;
33154;SDS011;19511;42.682;23.332;2023-05-29T12:45:13;10.85;;;3.35;;
33154;SDS011;19511;42.682;23.332;2023-05-29T12:47:55;14.65;;;4.22;;
33154;SDS011;19511;42.682;23.332;2023-05-29T12:50:34;6.63;;;2.70;;
33154;SDS011;19511;42.682;23.332;2023-05-29T12:53:03;10.90;;;4.05;;
33154;SDS011;19511;42.682;23.332;2023-05-29T12:55:37;9.30;;;4.43;;
33154;SDS011;19511;42.682;23.332;2023-05-29T12:58:08;10.95;;;5.10;;
33154;SDS011;19511;42.682;23.332;2023-05-29T13:00:35;6.82;;;4.22;;
33154;SDS011;19511;42.682;23.332;2023-05-29T13:03:03;8.32;;;4.10;;
33154;SDS011;19511;42.682;23.332;2023-05-29T13:05:29;10.77;;;4.47;;
33154;SDS011;19511;42.682;23.332;2023-05-29T13:07:55;12.30;;;5.43;;
33154;SDS011;19511;42.682;23.332;2023-05-29T13:10:25;5.95;;;2.97;;
33154;SDS011;19511;42.682;23.332;2023-05-29T13:12:57;9.68;;;3.15;;
33154;SDS011;19511;42.682;23.332;2023-05-29T13:15:24;9.02;;;3.80;;
33154;SDS011;19511;42.682;23.332;2023-05-29T13:17:51;5.95;;;3.45;;
33154;SDS011;19511;42.682;23.332;2023-05-29T13:20:20;5.55;;;2.90;;
33154;SDS011;19511;42.682;23.332;2023-05-29T13:22:46;5.38;;;2.72;;
33154;SDS011;19511;42.682;23.332;2023-05-29T13:25:16;5.82;;;3.17;;
33154;SDS011;19511;42.682;23.332;2023-05-29T13:27:49;5.80;;;2.72;;
33154;SDS011;19511;42.682;23.332;2023-05-29T13:30:15;7.47;;;2.90;;
33154;SDS011;19511;42.682;23.332;2023-05-29T13:32:46;6.53;;;3.15;;
33154;SDS011;19511;42.682;23.332;2023-05-29T13:35:15;9.23;;;3.42;;
33154;SDS011;19511;42.682;23.332;2023-05-29T13:37:43;9.63;;;4.30;;
33154;SDS011;19511;42.682;23.332;2023-05-29T13:40:12;9.95;;;3.58;;
33154;SDS011;19511;42.682;23.332;2023-05-29T13:42:39;4.35;;;2.75;;
33154;SDS011;19511;42.682;23.332;2023-05-29T13:45:05;7.18;;;3.33;;
33154;SDS011;19511;42.682;23.332;2023-05-29T13:47:32;4.70;;;2.60;;
33154;SDS011;19511;42.682;23.332;2023-05-29T13:49:57;4.32;;;2.72;;
33154;SDS011;19511;42.682;23.332;2023-05-29T13:52:23;6.00;;;3.35;;
33154;SDS011;19511;42.682;23.332;2023-05-29T13:54:49;11.88;;;2.80;;
33154;SDS011;19511;42.682;23.332;2023-05-29T13:57:15;3.13;;;2.17;;
33154;SDS011;19511;42.682;23.332;2023-05-29T13:59:40;2.22;;;1.40;;
33154;SDS011;19511;42.682;23.332;2023-05-29T14:02:06;5.00;;;2.47;;
33154;SDS011;19511;42.682;23.332;2023-05-29T14:04:34;5.78;;;2.13;;
33154;SDS011;19511;42.682;23.332;2023-05-29T14:06:59;2.03;;;1.10;;
33154;SDS011;19511;42.682;23.332;2023-05-29T14:09:25;6.68;;;1.30;;
33154;SDS011;19511;42.682;23.332;2023-05-29T14:14:19;3.08;;;1.30;;
33154;SDS011;19511;42.682;23.332;2023-05-29T14:16:48;1.92;;;1.15;;
33154;SDS011;19511;42.682;23.332;2023-05-29T14:19:15;2.80;;;1.25;;
33154;SDS011;19511;42.682;23.332;2023-05-29T14:21:40;2.17;;;1.20;;
33154;SDS011;19511;42.682;23.332;2023-05-29T14:24:06;1.98;;;1.42;;
33154;SDS011;19511;42.682;23.332;2023-05-29T14:26:32;2.47;;;1.40;;
33154;SDS011;19511;42.682;23.332;2023-05-29T14:28:58;5.28;;;1.52;;
33154;SDS011;19511;42.682;23.332;2023-05-29T14:31:23;6.35;;;1.65;;
33154;SDS011;19511;42.682;23.332;2023-05-29T14:33:49;13.98;;;1.70;;
33154;SDS011;19511;42.682;23.332;2023-05-29T14:36:14;6.00;;;1.05;;
33154;SDS011;19511;42.682;23.332;2023-05-29T14:38:40;5.28;;;1.50;;
33154;SDS011;19511;42.682;23.332;2023-05-29T14:41:06;4.28;;;1.48;;
33154;SDS011;19511;42.682;23.332;2023-05-29T14:43:31;4.25;;;1.90;;
33154;SDS011;19511;42.682;23.332;2023-05-29T14:45:57;1.92;;;1.40;;
33154;SDS011;19511;42.682;23.332;2023-05-29T14:48:23;5.95;;;1.77;;
33154;SDS011;19511;42.682;23.332;2023-05-29T14:50:51;1.85;;;1.30;;
33154;SDS011;19511;42.682;23.332;2023-05-29T14:53:16;6.22;;;1.00;;
33154;SDS011;19511;42.682;23.332;2023-05-29T14:55:42;2.33;;;1.35;;
33154;SDS011;19511;42.682;23.332;2023-05-29T14:58:08;2.00;;;1.30;;
33154;SDS011;19511;42.682;23.332;2023-05-29T15:00:33;2.92;;;1.63;;
33154;SDS011;19511;42.682;23.332;2023-05-29T15:02:59;3.05;;;1.50;;
33154;SDS011;19511;42.682;23.332;2023-05-29T15:05:25;2.13;;;1.20;;
33154;SDS011;19511;42.682;23.332;2023-05-29T15:07:51;4.60;;;1.75;;
33154;SDS011;19511;42.682;23.332;2023-05-29T15:10:19;3.35;;;1.35;;
33154;SDS011;19511;42.682;23.332;2023-05-29T15:12:45;2.67;;;1.13;;
33154;SDS011;19511;42.682;23.332;2023-05-29T15:15:11;2.15;;;1.25;;
33154;SDS011;19511;42.682;23.332;2023-05-29T15:17:36;2.75;;;1.55;;
33154;SDS011;19511;42.682;23.332;2023-05-29T15:20:03;2.78;;;1.52;;
33154;SDS011;19511;42.682;23.332;2023-05-29T15:22:29;2.45;;;1.30;;
33154;SDS011;19511;42.682;23.332;2023-05-29T15:24:54;4.18;;;2.15;;
33154;SDS011;19511;42.682;23.332;2023-05-29T15:27:20;4.68;;;1.48;;